Celestial — WDE5068 — position and weather

sailwx.info

Track history (hours):
 
Tides and Currents Weather Stations Pressure Air Temp Water Temp Dewpoint Dewpoint Depression Visibility Wind Speed Wind Dir Waves Ship Positions

Celestial

Owner: Entertainment Cruises, New York, NY. More information available from US FCC via Universal Licensing System and Coast Guard Vessel Documentation Center.

Last reported at 2017-Oct-20 01:45 UTC. Time now 2017-Oct-20 14:33 UTC.
Position N 40°45' W 074°01'.

Length 66 m.

Type: Passenger vessel. MMSI: 367361620.

Date/timePositionNaut miles runAvg speedWind from/ knotsBaromVisibWave heightAir tempDewpointWater temp
2017-Oct-20 01:45N 40°45' W 074°01'2 6.7
2017-Oct-20 01:30N 40°43' W 074°01'2 4.4
2017-Oct-20 01:00N 40°41' W 074°02'2 4.2
2017-Oct-20 00:30N 40°42' W 074°00'1 2.1
2017-Oct-20 00:00N 40°42' W 074°01'3 6.9
2017-Oct-19 23:30N 40°46' W 074°01'1 0.0
2017-Oct-19 01:47N 40°45' W 074°01'1 4.0
2017-Oct-19 01:30N 40°44' W 074°01'3 5.7
2017-Oct-19 01:00N 40°41' W 074°03'2 4.1
2017-Oct-19 00:31N 40°42' W 074°00'1 1.8
2017-Oct-19 00:00N 40°42' W 074°01'3 5.7
2017-Oct-18 23:30N 40°45' W 074°01'0 0.4
2017-Oct-18 23:00N 40°45' W 074°01'0 0.0
2017-Oct-18 01:43N 40°45' W 074°01'1 5.6
2017-Oct-18 01:30N 40°43' W 074°01'3 5.0
2017-Oct-18 01:00N 40°41' W 074°03'2 3.8
2017-Oct-18 00:30N 40°42' W 074°00'1 1.4
2017-Oct-18 00:00N 40°42' W 074°01'3 5.7
2017-Oct-17 23:30N 40°45' W 074°01'0 0.4
2017-Oct-17 23:00N 40°45' W 074°01'0 0.0
2017-Oct-17 01:55N 40°45' W 074°01'2 3.7
2017-Oct-17 01:31N 40°43' W 074°01'2 4.7
2017-Oct-17 01:01N 40°41' W 074°02'1 2.8
2017-Oct-17 00:31N 40°42' W 074°01'0 0.1
2017-Oct-17 00:01N 40°42' W 074°01'3 6.3
2017-Oct-16 23:31N 40°45' W 074°01'0 0.4
2017-Oct-16 23:00N 40°45' W 074°01'0 0.0
2017-Oct-16 01:51N 40°45' W 074°01'1 3.0
2017-Oct-16 01:30N 40°44' W 074°01'3 5.5
2017-Oct-16 01:00N 40°41' W 074°02'3 5.5
2017-Oct-16 00:30N 40°42' W 073°59'2 3.4
2017-Oct-16 00:00N 40°42' W 074°01'3 5.5
2017-Oct-15 23:30N 40°45' W 074°01'0 0.5
2017-Oct-15 23:00N 40°45' W 074°01'0 0.0
2017-Oct-15 22:30N 40°45' W 074°01'0 0.0
2017-Oct-15 22:00N 40°45' W 074°01'0 0.0
2017-Oct-15 21:30N 40°45' W 074°01'0 0.0
2017-Oct-15 21:00N 40°45' W 074°01'0 0.0
2017-Oct-15 20:30N 40°45' W 074°01'0 0.0
2017-Oct-15 20:00N 40°45' W 074°01'0 0.0
2017-Oct-15 01:59N 40°45' W 074°01'2 3.5
2017-Oct-15 01:30N 40°43' W 074°02'2 4.4
2017-Oct-15 01:00N 40°41' W 074°02'2 3.7
2017-Oct-15 00:30N 40°42' W 074°00'1 1.2
2017-Oct-15 00:00N 40°42' W 074°01'4 7.4
2017-Oct-14 23:30N 40°46' W 074°01'1 1.6
2017-Oct-14 23:00N 40°45' W 074°01'0 0.0
2017-Oct-14 22:30N 40°45' W 074°01'0 0.0
2017-Oct-14 22:00N 40°45' W 074°01'0 0.0
2017-Oct-14 21:30N 40°45' W 074°01'0 0.0
2017-Oct-14 21:00N 40°45' W 074°01'0 0.0
2017-Oct-14 20:30N 40°45' W 074°01'0 0.0
2017-Oct-14 20:00N 40°45' W 074°01'0 0.0
2017-Oct-14 19:30N 40°45' W 074°01'0 0.0
2017-Oct-14 19:00N 40°45' W 074°01'0 0.0
2017-Oct-14 18:30N 40°45' W 074°01'0 0.1
2017-Oct-14 18:00N 40°45' W 074°01'2 4.4
2017-Oct-14 17:30N 40°43' W 074°02'1 1.8
2017-Oct-14 17:01N 40°42' W 074°01'2 3.2
2017-Oct-14 16:30N 40°43' W 074°01'1 2.8
2017-Oct-14 16:00N 40°45' W 074°01'0 0.0
2017-Oct-14 01:47N 40°45' W 074°01'1 4.6
2017-Oct-14 01:30N 40°43' W 074°01'2 4.8
2017-Oct-14 01:00N 40°41' W 074°03'2 4.2
2017-Oct-14 00:30N 40°42' W 074°00'1 1.9
2017-Oct-14 00:00N 40°42' W 074°01'3 6.9
2017-Oct-13 23:30N 40°46' W 074°01'1 1.6
2017-Oct-13 23:00N 40°45' W 074°01'0 0.0
2017-Oct-13 22:30N 40°45' W 074°01'0 0.0
2017-Oct-13 22:00N 40°45' W 074°01'0 0.0
2017-Oct-13 21:30N 40°45' W 074°01'0 0.0
2017-Oct-13 21:00N 40°45' W 074°01'0 0.0
2017-Oct-13 20:30N 40°45' W 074°01'0 0.0
2017-Oct-13 20:00N 40°45' W 074°01'0 0.0
2017-Oct-13 19:30N 40°45' W 074°01'0 0.0
2017-Oct-13 19:00N 40°45' W 074°01'0 0.0
2017-Oct-13 18:30N 40°45' W 074°01'0 0.0
2017-Oct-13 18:00N 40°45' W 074°01'1 1.5
2017-Oct-13 17:30N 40°44' W 074°01'3 6.4
2017-Oct-13 17:00N 40°41' W 074°03'1 2.4
2017-Oct-13 16:30N 40°42' W 074°01'3 5.8
2017-Oct-13 16:00N 40°45' W 074°01'0 0.0
2017-Oct-13 15:30N 40°45' W 074°01'0 0.0
2017-Oct-13 15:00N 40°45' W 074°01'0 0.0
2017-Oct-13 14:30N 40°45' W 074°01'0 0.0
2017-Oct-13 01:53N 40°45' W 074°01'2 5.0
2017-Oct-13 01:30N 40°43' W 074°01'2 4.3
2017-Oct-13 01:00N 40°41' W 074°03'3 6.3
2017-Oct-13 00:30N 40°42' W 073°59'2 3.7
2017-Oct-13 00:00N 40°42' W 074°01'3 6.1
2017-Oct-12 23:30N 40°45' W 074°01'0 0.4
2017-Oct-12 23:00N 40°45' W 074°01'0 0.0
2017-Oct-12 02:01N 40°45' W 074°01'0 5.1
2017-Oct-12 02:00N 40°45' W 074°01'3 5.7
2017-Oct-12 01:30N 40°42' W 074°02'1 1.7
2017-Oct-12 01:01N 40°42' W 074°01'1 2.1
2017-Oct-12 00:30N 40°42' W 073°60'2 3.2
2017-Oct-12 00:00N 40°43' W 074°01'3 5.5
2017-Oct-11 23:30N 40°46' W 074°00'4 0.2
2017-Oct-11 00:01N 40°42' W 074°01'4 7.0
2017-Oct-10 23:31N 40°46' W 074°01'1 1.4
2017-Oct-10 23:00N 40°45' W 074°01'  
Track history (hours):
 
Tides and Currents Weather Stations Pressure Air Temp Water Temp Dewpoint Dewpoint Depression Visibility Wind Speed Wind Dir Waves Ship Positions

Celestial

Owner: Entertainment Cruises, New York, NY. More information available from US FCC via Universal Licensing System and Coast Guard Vessel Documentation Center.

Last reported at 2017-Oct-20 01:45 UTC. Time now 2017-Oct-20 14:33 UTC.
Position N 40°45' W 074°01'.

Length 66 m.

Type: Passenger vessel. MMSI: 367361620.

Date/timePositionNaut miles runAvg speedWind from/ knotsBaromVisibWave heightAir tempDewpointWater temp
2017-Oct-20 01:45N 40°45' W 074°01'2 6.7
2017-Oct-20 01:30N 40°43' W 074°01'2 4.4
2017-Oct-20 01:00N 40°41' W 074°02'2 4.2
2017-Oct-20 00:30N 40°42' W 074°00'1 2.1
2017-Oct-20 00:00N 40°42' W 074°01'3 6.9
2017-Oct-19 23:30N 40°46' W 074°01'1 0.0
2017-Oct-19 01:47N 40°45' W 074°01'1 4.0
2017-Oct-19 01:30N 40°44' W 074°01'3 5.7
2017-Oct-19 01:00N 40°41' W 074°03'2 4.1
2017-Oct-19 00:31N 40°42' W 074°00'1 1.8
2017-Oct-19 00:00N 40°42' W 074°01'3 5.7
2017-Oct-18 23:30N 40°45' W 074°01'0 0.4
2017-Oct-18 23:00N 40°45' W 074°01'0 0.0
2017-Oct-18 01:43N 40°45' W 074°01'1 5.6
2017-Oct-18 01:30N 40°43' W 074°01'3 5.0
2017-Oct-18 01:00N 40°41' W 074°03'2 3.8
2017-Oct-18 00:30N 40°42' W 074°00'1 1.4
2017-Oct-18 00:00N 40°42' W 074°01'3 5.7
2017-Oct-17 23:30N 40°45' W 074°01'0 0.4
2017-Oct-17 23:00N 40°45' W 074°01'0 0.0
2017-Oct-17 01:55N 40°45' W 074°01'2 3.7
2017-Oct-17 01:31N 40°43' W 074°01'2 4.7
2017-Oct-17 01:01N 40°41' W 074°02'1 2.8
2017-Oct-17 00:31N 40°42' W 074°01'0 0.1
2017-Oct-17 00:01N 40°42' W 074°01'3 6.3
2017-Oct-16 23:31N 40°45' W 074°01'0 0.4
2017-Oct-16 23:00N 40°45' W 074°01'0 0.0
2017-Oct-16 01:51N 40°45' W 074°01'1 3.0
2017-Oct-16 01:30N 40°44' W 074°01'3 5.5
2017-Oct-16 01:00N 40°41' W 074°02'3 5.5
2017-Oct-16 00:30N 40°42' W 073°59'2 3.4
2017-Oct-16 00:00N 40°42' W 074°01'3 5.5
2017-Oct-15 23:30N 40°45' W 074°01'0 0.5
2017-Oct-15 23:00N 40°45' W 074°01'0 0.0
2017-Oct-15 22:30N 40°45' W 074°01'0 0.0
2017-Oct-15 22:00N 40°45' W 074°01'0 0.0
2017-Oct-15 21:30N 40°45' W 074°01'0 0.0
2017-Oct-15 21:00N 40°45' W 074°01'0 0.0
2017-Oct-15 20:30N 40°45' W 074°01'0 0.0
2017-Oct-15 20:00N 40°45' W 074°01'0 0.0
2017-Oct-15 01:59N 40°45' W 074°01'2 3.5
2017-Oct-15 01:30N 40°43' W 074°02'2 4.4
2017-Oct-15 01:00N 40°41' W 074°02'2 3.7
2017-Oct-15 00:30N 40°42' W 074°00'1 1.2
2017-Oct-15 00:00N 40°42' W 074°01'4 7.4
2017-Oct-14 23:30N 40°46' W 074°01'1 1.6
2017-Oct-14 23:00N 40°45' W 074°01'0 0.0
2017-Oct-14 22:30N 40°45' W 074°01'0 0.0
2017-Oct-14 22:00N 40°45' W 074°01'0 0.0
2017-Oct-14 21:30N 40°45' W 074°01'0 0.0
2017-Oct-14 21:00N 40°45' W 074°01'0 0.0
2017-Oct-14 20:30N 40°45' W 074°01'0 0.0
2017-Oct-14 20:00N 40°45' W 074°01'0 0.0
2017-Oct-14 19:30N 40°45' W 074°01'0 0.0
2017-Oct-14 19:00N 40°45' W 074°01'0 0.0
2017-Oct-14 18:30N 40°45' W 074°01'0 0.1
2017-Oct-14 18:00N 40°45' W 074°01'2 4.4
2017-Oct-14 17:30N 40°43' W 074°02'1 1.8
2017-Oct-14 17:01N 40°42' W 074°01'2 3.2
2017-Oct-14 16:30N 40°43' W 074°01'1 2.8
2017-Oct-14 16:00N 40°45' W 074°01'0 0.0
2017-Oct-14 01:47N 40°45' W 074°01'1 4.6
2017-Oct-14 01:30N 40°43' W 074°01'2 4.8
2017-Oct-14 01:00N 40°41' W 074°03'2 4.2
2017-Oct-14 00:30N 40°42' W 074°00'1 1.9
2017-Oct-14 00:00N 40°42' W 074°01'3 6.9
2017-Oct-13 23:30N 40°46' W 074°01'1 1.6
2017-Oct-13 23:00N 40°45' W 074°01'0 0.0
2017-Oct-13 22:30N 40°45' W 074°01'0 0.0
2017-Oct-13 22:00N 40°45' W 074°01'0 0.0
2017-Oct-13 21:30N 40°45' W 074°01'0 0.0
2017-Oct-13 21:00N 40°45' W 074°01'0 0.0
2017-Oct-13 20:30N 40°45' W 074°01'0 0.0
2017-Oct-13 20:00N 40°45' W 074°01'0 0.0
2017-Oct-13 19:30N 40°45' W 074°01'0 0.0
2017-Oct-13 19:00N 40°45' W 074°01'0 0.0
2017-Oct-13 18:30N 40°45' W 074°01'0 0.0
2017-Oct-13 18:00N 40°45' W 074°01'1 1.5
2017-Oct-13 17:30N 40°44' W 074°01'3 6.4
2017-Oct-13 17:00N 40°41' W 074°03'1 2.4
2017-Oct-13 16:30N 40°42' W 074°01'3 5.8
2017-Oct-13 16:00N 40°45' W 074°01'0 0.0
2017-Oct-13 15:30N 40°45' W 074°01'0 0.0
2017-Oct-13 15:00N 40°45' W 074°01'0 0.0
2017-Oct-13 14:30N 40°45' W 074°01'0 0.0
2017-Oct-13 01:53N 40°45' W 074°01'2 5.0
2017-Oct-13 01:30N 40°43' W 074°01'2 4.3
2017-Oct-13 01:00N 40°41' W 074°03'3 6.3
2017-Oct-13 00:30N 40°42' W 073°59'2 3.7
2017-Oct-13 00:00N 40°42' W 074°01'3 6.1
2017-Oct-12 23:30N 40°45' W 074°01'0 0.4
2017-Oct-12 23:00N 40°45' W 074°01'0 0.0
2017-Oct-12 02:01N 40°45' W 074°01'0 5.1
2017-Oct-12 02:00N 40°45' W 074°01'3 5.7
2017-Oct-12 01:30N 40°42' W 074°02'1 1.7
2017-Oct-12 01:01N 40°42' W 074°01'1 2.1
2017-Oct-12 00:30N 40°42' W 073°60'2 3.2
2017-Oct-12 00:00N 40°43' W 074°01'3 5.5
2017-Oct-11 23:30N 40°46' W 074°00'4 0.2
2017-Oct-11 00:01N 40°42' W 074°01'4 7.0
2017-Oct-10 23:31N 40°46' W 074°01'1 1.4
2017-Oct-10 23:00N 40°45' W 074°01'  

Dump ship's entire track history